createdAt,value
2023-04-19T00:00:52.501Z,5.03
2023-04-19T00:03:19.026Z,4.87
2023-04-19T00:05:45.462Z,4.50
2023-04-19T00:08:11.856Z,4.37
2023-04-19T00:10:39.838Z,4.40
2023-04-19T00:13:06.350Z,4.67
2023-04-19T00:15:32.704Z,4.77
2023-04-19T00:17:59.067Z,5.57
2023-04-19T00:20:25.587Z,5.47
2023-04-19T00:22:51.910Z,4.90
2023-04-19T00:25:18.177Z,4.83
2023-04-19T00:27:44.457Z,4.27
2023-04-19T00:30:11.034Z,4.47
2023-04-19T00:32:37.481Z,4.87
2023-04-19T00:35:03.950Z,4.83
2023-04-19T00:37:30.505Z,4.10
2023-04-19T00:39:56.799Z,4.07
2023-04-19T00:42:23.069Z,4.53
2023-04-19T00:44:49.378Z,4.23
2023-04-19T00:47:15.752Z,6.27
2023-04-19T00:49:42.011Z,4.80
2023-04-19T00:52:08.390Z,5.77
2023-04-19T00:54:34.912Z,4.40
2023-04-19T00:57:01.445Z,5.37
2023-04-19T00:59:27.704Z,4.47
2023-04-19T01:01:54.207Z,4.90
2023-04-19T01:04:21.304Z,4.50
2023-04-19T01:06:47.644Z,4.53
2023-04-19T01:09:13.969Z,4.70
2023-04-19T01:11:42.532Z,4.67
2023-04-19T01:14:09.578Z,4.77
2023-04-19T01:16:36.287Z,4.53
2023-04-19T01:19:02.637Z,5.93
2023-04-19T01:21:32.538Z,5.10
2023-04-19T01:23:58.821Z,6.03
2023-04-19T01:26:25.193Z,4.53
2023-04-19T01:28:51.532Z,5.17
2023-04-19T01:31:17.833Z,4.73
2023-04-19T01:33:44.132Z,4.70
2023-04-19T01:36:10.580Z,4.60
2023-04-19T01:38:36.925Z,4.60
2023-04-19T01:41:03.229Z,5.20
2023-04-19T01:43:29.518Z,5.00
2023-04-19T01:45:55.771Z,5.70
2023-04-19T01:48:22.022Z,6.27
2023-04-19T01:50:48.321Z,5.33
2023-04-19T01:53:14.671Z,5.27
2023-04-19T01:55:40.890Z,6.53
2023-04-19T01:58:07.300Z,5.57
2023-04-19T02:00:33.640Z,5.70
2023-04-19T02:03:00.235Z,6.03
2023-04-19T02:05:26.575Z,6.30
2023-04-19T02:07:52.867Z,6.87
2023-04-19T02:10:19.178Z,5.57
2023-04-19T02:12:45.462Z,5.97
2023-04-19T02:15:11.783Z,6.27
2023-04-19T02:17:38.842Z,5.67
2023-04-19T02:20:05.914Z,6.73
2023-04-19T02:22:32.184Z,6.03
2023-04-19T02:24:58.937Z,5.80
2023-04-19T02:27:25.372Z,6.93
2023-04-19T02:29:51.613Z,6.10
2023-04-19T02:32:17.916Z,6.10
2023-04-19T02:34:44.145Z,6.33
2023-04-19T02:37:10.644Z,7.00
2023-04-19T02:39:36.950Z,6.47
2023-04-19T02:42:03.371Z,6.77
2023-04-19T02:44:29.739Z,6.27
2023-04-19T02:46:57.591Z,7.90
2023-04-19T02:49:23.925Z,7.37
2023-04-19T02:51:50.932Z,6.90
2023-04-19T02:54:17.420Z,8.07
2023-04-19T02:56:43.773Z,6.90
2023-04-19T02:59:10.099Z,7.57
2023-04-19T03:01:36.500Z,8.40
2023-04-19T03:04:03.079Z,7.67
2023-04-19T03:06:29.562Z,11.27
2023-04-19T03:08:55.818Z,8.87
2023-04-19T03:11:22.030Z,8.80
2023-04-19T03:13:48.298Z,9.10
2023-04-19T03:16:14.641Z,10.43
2023-04-19T03:18:40.949Z,9.90
2023-04-19T03:21:09.364Z,9.80
2023-04-19T03:23:35.714Z,11.10
2023-04-19T03:26:02.023Z,11.37
2023-04-19T03:28:28.304Z,8.83
2023-04-19T03:30:54.572Z,10.07
2023-04-19T03:33:20.850Z,8.77
2023-04-19T03:35:47.089Z,9.00
2023-04-19T03:38:13.412Z,9.00
2023-04-19T03:40:39.874Z,9.27
2023-04-19T03:43:06.125Z,8.73
2023-04-19T03:45:32.428Z,8.83
2023-04-19T03:47:59.620Z,9.10
2023-04-19T03:50:27.609Z,10.77
2023-04-19T03:52:54.675Z,8.80
2023-04-19T03:55:20.982Z,8.27
2023-04-19T03:57:47.241Z,8.67
2023-04-19T04:00:13.783Z,8.97
2023-04-19T04:02:40.203Z,8.80
2023-04-19T04:05:07.039Z,11.57
2023-04-19T04:07:33.517Z,9.97
2023-04-19T04:09:59.834Z,9.70
2023-04-19T04:12:26.077Z,10.30
2023-04-19T04:14:52.356Z,10.13
2023-04-19T04:17:19.425Z,18.77
2023-04-19T04:19:45.721Z,20.77
2023-04-19T04:22:11.955Z,12.13
2023-04-19T04:24:38.865Z,11.63
2023-04-19T04:27:05.731Z,11.70
2023-04-19T04:29:32.739Z,12.57
2023-04-19T04:31:59.049Z,11.73
2023-04-19T04:34:25.708Z,14.13
2023-04-19T04:36:52.085Z,13.53
2023-04-19T04:39:18.869Z,12.00
2023-04-19T04:41:46.250Z,13.10
2023-04-19T04:44:13.184Z,11.27
2023-04-19T04:46:39.626Z,12.33
2023-04-19T04:49:06.427Z,12.47
2023-04-19T04:51:32.730Z,12.00
2023-04-19T04:53:59.109Z,10.43
2023-04-19T04:56:26.960Z,10.40
2023-04-19T04:58:53.450Z,12.57
2023-04-19T05:01:21.257Z,11.33
2023-04-19T05:03:47.593Z,12.00
2023-04-19T05:06:13.838Z,11.03
2023-04-19T05:08:40.281Z,14.63
2023-04-19T05:11:06.577Z,23.83
2023-04-19T05:13:32.854Z,33.97
2023-04-19T05:15:59.228Z,15.40
2023-04-19T05:18:25.517Z,13.00
2023-04-19T05:20:52.190Z,10.37
2023-04-19T05:23:18.630Z,10.07
2023-04-19T05:25:44.923Z,14.10
2023-04-19T05:28:11.291Z,13.17
2023-04-19T05:30:37.585Z,11.53
2023-04-19T05:33:04.395Z,9.83
2023-04-19T05:35:30.774Z,11.57
2023-04-19T05:37:57.111Z,10.00
2023-04-19T05:40:26.389Z,12.47
2023-04-19T05:42:52.892Z,11.20
2023-04-19T05:45:19.375Z,31.47
2023-04-19T05:47:45.715Z,11.87
2023-04-19T05:50:12.016Z,10.37
2023-04-19T05:52:38.334Z,10.27
2023-04-19T05:55:04.974Z,10.30
2023-04-19T05:57:31.285Z,11.73
2023-04-19T05:59:57.703Z,11.47
2023-04-19T06:02:24.146Z,11.20
2023-04-19T06:04:50.693Z,11.57
2023-04-19T06:07:27.536Z,16.70
2023-04-19T06:09:57.900Z,12.73
2023-04-19T06:12:24.282Z,10.40
2023-04-19T06:14:51.174Z,11.50
2023-04-19T06:17:17.567Z,14.37
2023-04-19T06:19:43.926Z,12.90
2023-04-19T06:22:10.580Z,12.00
2023-04-19T06:24:36.909Z,13.33
2023-04-19T06:27:03.226Z,12.30
2023-04-19T06:29:29.585Z,12.53
2023-04-19T06:31:56.025Z,11.63
2023-04-19T06:34:22.364Z,13.27
2023-04-19T06:36:48.642Z,12.67
2023-04-19T06:39:15.001Z,15.60
2023-04-19T06:41:41.304Z,11.50
2023-04-19T06:44:07.701Z,12.17
2023-04-19T06:46:34.052Z,13.13
2023-04-19T06:49:00.362Z,12.87
2023-04-19T06:51:26.959Z,11.50
2023-04-19T06:53:53.357Z,13.37
2023-04-19T06:56:38.684Z,10.80
2023-04-19T06:59:05.092Z,12.70
2023-04-19T07:01:31.542Z,14.00
2023-04-19T07:03:58.033Z,12.23
2023-04-19T07:06:24.904Z,15.57
2023-04-19T07:08:51.314Z,12.80
2023-04-19T07:11:18.058Z,14.00
2023-04-19T07:13:45.215Z,12.40
2023-04-19T07:16:11.482Z,18.50
2023-04-19T07:18:37.768Z,11.97
2023-04-19T07:21:04.214Z,12.07
2023-04-19T07:23:30.868Z,13.70
2023-04-19T07:25:57.191Z,11.80
2023-04-19T07:28:23.466Z,13.13
2023-04-19T07:30:49.718Z,10.27
2023-04-19T07:33:17.049Z,11.80
2023-04-19T07:35:43.465Z,11.13
2023-04-19T07:38:09.780Z,12.27
2023-04-19T07:40:36.656Z,11.20
2023-04-19T07:43:02.988Z,11.00
2023-04-19T07:45:30.686Z,12.40
2023-04-19T07:47:57.284Z,11.13
2023-04-19T07:50:24.906Z,10.17
2023-04-19T07:52:51.221Z,8.60
2023-04-19T07:55:17.585Z,11.27
2023-04-19T07:57:48.061Z,11.80
2023-04-19T08:00:18.285Z,11.23
2023-04-19T08:02:45.956Z,8.83
2023-04-19T08:05:13.551Z,10.10
2023-04-19T08:07:40.432Z,7.60
2023-04-19T08:10:07.291Z,8.87
2023-04-19T08:12:40.618Z,8.93
2023-04-19T08:15:32.925Z,8.73
2023-04-19T08:17:55.716Z,8.73
2023-04-19T08:20:22.254Z,9.03
2023-04-19T08:22:49.649Z,9.93
2023-04-19T08:25:16.580Z,9.80
2023-04-19T08:27:42.954Z,9.33
2023-04-19T08:30:10.745Z,8.73
2023-04-19T08:32:37.135Z,8.47
2023-04-19T08:35:04.174Z,11.07
2023-04-19T08:37:30.609Z,9.13
2023-04-19T08:39:56.948Z,7.60
2023-04-19T08:42:35.521Z,8.10
2023-04-19T08:47:42.003Z,8.47
2023-04-19T08:50:31.226Z,10.07
2023-04-19T08:53:12.212Z,7.90
2023-04-19T08:56:03.362Z,7.67
2023-04-19T09:01:07.116Z,10.03
2023-04-19T09:03:41.132Z,10.60
2023-04-19T09:06:12.126Z,10.00
2023-04-19T09:08:39.557Z,10.60
2023-04-19T09:11:05.916Z,10.07
2023-04-19T09:13:32.620Z,9.27
2023-04-19T09:16:02.004Z,8.90
2023-04-19T09:18:31.168Z,6.63
2023-04-19T09:20:58.874Z,9.87
2023-04-19T09:23:26.287Z,7.63
2023-04-19T09:28:31.801Z,7.13
2023-04-19T09:31:07.077Z,8.00
2023-04-19T09:33:39.778Z,6.37
2023-04-19T09:36:07.084Z,7.40
2023-04-19T09:38:49.476Z,7.60
2023-04-19T09:41:17.259Z,7.03
2023-04-19T09:44:00.885Z,8.10
2023-04-19T09:46:31.672Z,8.53
2023-04-19T09:49:41.554Z,6.50
2023-04-19T09:52:14.247Z,8.17
2023-04-19T09:54:41.513Z,6.03
2023-04-19T09:57:08.188Z,7.60
2023-04-19T09:59:34.540Z,10.90
2023-04-19T10:02:01.586Z,8.63
2023-04-19T10:04:41.784Z,5.57
2023-04-19T10:09:52.865Z,6.83
2023-04-19T10:12:39.098Z,5.67
2023-04-19T10:15:07.311Z,5.70
2023-04-19T10:17:33.849Z,6.97
2023-04-19T10:20:06.421Z,6.00
2023-04-19T10:22:34.705Z,6.33
2023-04-19T10:25:16.821Z,4.77
2023-04-19T10:27:48.680Z,4.87
2023-04-19T10:30:18.280Z,4.83
2023-04-19T10:32:46.093Z,6.00
2023-04-19T10:35:19.725Z,4.53
2023-04-19T10:38:02.248Z,5.17
2023-04-19T10:40:47.291Z,8.10
2023-04-19T10:43:13.585Z,5.37
2023-04-19T10:45:40.003Z,8.67
2023-04-19T10:48:06.267Z,7.00
2023-04-19T10:50:55.920Z,4.73
2023-04-19T10:53:40.868Z,5.33
2023-04-19T10:56:07.219Z,7.03
2023-04-19T10:58:53.545Z,4.70
2023-04-19T11:01:40.072Z,4.87
2023-04-19T11:04:07.543Z,5.97
2023-04-19T11:06:34.476Z,5.87
2023-04-19T11:09:01.036Z,6.70
2023-04-19T11:11:27.562Z,9.23
2023-04-19T11:13:57.878Z,5.90
2023-04-19T11:16:38.023Z,6.40
2023-04-19T11:19:10.580Z,4.23
2023-04-19T11:21:40.587Z,5.13
2023-04-19T11:24:08.240Z,4.30
2023-04-19T11:26:34.786Z,4.67
2023-04-19T11:29:01.392Z,5.53
2023-04-19T11:31:28.151Z,6.07
2023-04-19T11:33:54.606Z,7.07
2023-04-19T11:36:20.937Z,4.43
2023-04-19T11:38:50.302Z,7.20
2023-04-19T11:41:16.711Z,4.37
2023-04-19T11:43:45.155Z,6.40
2023-04-19T11:46:12.075Z,3.97
2023-04-19T11:48:38.918Z,4.33
2023-04-19T11:51:05.579Z,7.30
2023-04-19T11:53:32.219Z,4.73
2023-04-19T11:56:08.815Z,5.03
2023-04-19T11:58:39.860Z,4.50
2023-04-19T12:01:09.897Z,3.87
2023-04-19T12:03:40.698Z,3.50
2023-04-19T12:06:10.983Z,3.47
2023-04-19T12:08:38.244Z,3.07
2023-04-19T12:11:05.587Z,3.13
2023-04-19T12:13:32.349Z,4.40
2023-04-19T12:15:59.137Z,3.50
2023-04-19T12:18:26.018Z,4.37
2023-04-19T12:20:53.133Z,5.03
2023-04-19T12:23:20.443Z,3.97
2023-04-19T12:25:47.700Z,4.00
2023-04-19T12:28:14.666Z,5.27
2023-04-19T12:30:41.459Z,4.60
2023-04-19T12:33:08.151Z,9.13
2023-04-19T12:35:35.375Z,4.80
2023-04-19T12:38:02.788Z,3.30
2023-04-19T12:40:29.160Z,4.13
2023-04-19T12:42:55.879Z,3.30
2023-04-19T12:45:22.133Z,3.93
2023-04-19T12:47:48.852Z,5.80
2023-04-19T12:50:16.043Z,3.93
2023-04-19T12:52:42.751Z,6.63
2023-04-19T12:55:09.280Z,2.73
2023-04-19T12:57:35.993Z,4.53
2023-04-19T13:00:02.231Z,3.50
2023-04-19T13:02:28.616Z,3.17
2023-04-19T13:04:55.412Z,3.70
2023-04-19T13:07:21.871Z,4.50
2023-04-19T13:09:48.174Z,5.13
2023-04-19T13:12:14.406Z,2.43
2023-04-19T13:14:40.919Z,2.00
2023-04-19T13:17:07.564Z,6.13
2023-04-19T13:19:33.875Z,2.63
2023-04-19T13:22:00.290Z,3.43
2023-04-19T13:24:26.533Z,5.60
2023-04-19T13:26:52.891Z,3.87
2023-04-19T13:29:19.275Z,2.33
2023-04-19T13:31:46.893Z,4.30
2023-04-19T13:34:13.321Z,2.20
2023-04-19T13:36:41.023Z,4.73
2023-04-19T13:39:08.516Z,6.67
2023-04-19T13:41:35.028Z,3.80
2023-04-19T13:44:01.294Z,4.10
2023-04-19T13:46:27.617Z,2.70
2023-04-19T13:48:53.957Z,3.57
2023-04-19T13:51:20.405Z,3.73
2023-04-19T13:53:46.724Z,4.17
2023-04-19T13:56:13.058Z,3.43
2023-04-19T13:58:39.400Z,9.80
2023-04-19T14:01:05.674Z,2.60
2023-04-19T14:03:32.321Z,3.10
2023-04-19T14:05:58.901Z,2.67
2023-04-19T14:08:25.263Z,5.27
2023-04-19T14:10:51.770Z,4.17
2023-04-19T14:13:18.099Z,2.47
2023-04-19T14:15:44.399Z,2.93
2023-04-19T14:18:10.912Z,4.60
2023-04-19T14:20:37.316Z,4.77
2023-04-19T14:23:03.747Z,4.77
2023-04-19T14:25:30.049Z,3.77
2023-04-19T14:27:56.433Z,2.97
2023-04-19T14:30:22.781Z,3.20
2023-04-19T14:32:49.217Z,5.10
2023-04-19T14:35:15.701Z,7.20
2023-04-19T14:37:42.107Z,3.60
2023-04-19T14:40:08.848Z,2.60
2023-04-19T14:42:35.148Z,5.47
2023-04-19T14:45:01.622Z,4.78
2023-04-19T14:47:28.000Z,5.32
2023-04-19T14:49:54.546Z,3.60
2023-04-19T14:52:21.369Z,2.63
2023-04-19T14:54:47.676Z,3.20
2023-04-19T14:57:14.016Z,5.00
2023-04-19T14:59:40.379Z,2.78
2023-04-19T15:02:07.174Z,3.70
2023-04-19T15:04:34.884Z,7.35
2023-04-19T15:07:03.429Z,4.50
2023-04-19T15:09:29.773Z,2.80
2023-04-19T15:11:56.352Z,6.72
2023-04-19T15:14:22.666Z,2.75
2023-04-19T15:16:49.064Z,3.60
2023-04-19T15:19:15.774Z,2.95
2023-04-19T15:21:42.325Z,2.47
2023-04-19T15:24:08.655Z,3.75
2023-04-19T15:26:35.164Z,3.92
2023-04-19T15:29:01.503Z,3.00
2023-04-19T15:31:27.807Z,4.30
2023-04-19T15:33:54.228Z,4.10
2023-04-19T15:36:20.551Z,7.10
2023-04-19T15:38:46.892Z,2.80
2023-04-19T15:41:13.246Z,2.72
2023-04-19T15:43:39.558Z,3.88
2023-04-19T15:46:05.977Z,3.33
2023-04-19T15:48:32.373Z,3.90
2023-04-19T15:50:59.008Z,5.20
2023-04-19T15:53:25.381Z,2.80
2023-04-19T15:55:51.833Z,3.05
2023-04-19T15:58:18.462Z,4.78
2023-04-19T16:00:44.790Z,5.53
2023-04-19T16:03:12.396Z,2.47
2023-04-19T16:05:39.028Z,3.50
2023-04-19T16:08:06.302Z,4.95
2023-04-19T16:10:32.782Z,4.03
2023-04-19T16:12:59.701Z,2.20
2023-04-19T16:15:26.309Z,2.70
2023-04-19T16:17:52.770Z,3.55
2023-04-19T16:20:20.412Z,3.08
2023-04-19T16:22:47.297Z,4.35
2023-04-19T16:25:14.472Z,2.53
2023-04-19T16:27:42.323Z,2.75
2023-04-19T16:30:12.139Z,4.10
2023-04-19T16:32:38.707Z,3.05
2023-04-19T16:35:05.743Z,2.45
2023-04-19T16:37:32.506Z,3.30
2023-04-19T16:39:59.356Z,3.38
2023-04-19T16:42:25.652Z,2.20
2023-04-19T16:44:51.955Z,2.97
2023-04-19T16:47:18.183Z,9.18
2023-04-19T16:49:46.047Z,5.22
2023-04-19T16:52:12.326Z,6.35
2023-04-19T16:54:38.556Z,2.97
2023-04-19T16:57:04.946Z,2.40
2023-04-19T16:59:31.699Z,3.22
2023-04-19T17:02:01.471Z,2.58
2023-04-19T17:04:28.830Z,3.90
2023-04-19T17:06:55.593Z,2.45
2023-04-19T17:09:21.901Z,2.88
2023-04-19T17:11:48.148Z,3.38
2023-04-19T17:14:14.711Z,4.35
2023-04-19T17:16:41.191Z,4.18
2023-04-19T17:19:07.557Z,2.65
2023-04-19T17:21:33.786Z,2.67
2023-04-19T17:24:00.209Z,4.07
2023-04-19T17:26:26.551Z,2.70
2023-04-19T17:28:52.914Z,2.75
2023-04-19T17:31:19.182Z,3.17
2023-04-19T17:33:45.463Z,4.70
2023-04-19T17:36:11.760Z,2.10
2023-04-19T17:38:38.241Z,3.03
2023-04-19T17:41:05.324Z,5.43
2023-04-19T17:43:31.529Z,2.88
2023-04-19T17:45:57.945Z,12.77
2023-04-19T17:48:24.238Z,4.67
2023-04-19T17:50:50.580Z,3.63
2023-04-19T17:53:16.904Z,2.63
2023-04-19T17:55:43.163Z,5.87
2023-04-19T17:58:09.401Z,2.33
2023-04-19T18:00:35.704Z,6.33
2023-04-19T18:03:02.138Z,3.50
2023-04-19T18:05:29.046Z,3.03
2023-04-19T18:07:55.883Z,2.50
2023-04-19T18:10:22.225Z,2.70
2023-04-19T18:12:48.592Z,3.30
2023-04-19T18:15:14.879Z,2.63
2023-04-19T18:17:41.385Z,2.57
2023-04-19T18:20:08.247Z,5.03
2023-04-19T18:22:34.607Z,3.83
2023-04-19T18:25:00.938Z,4.00
2023-04-19T18:27:27.248Z,4.43
2023-04-19T18:29:53.621Z,3.97
2023-04-19T18:32:21.625Z,5.97
2023-04-19T18:34:47.950Z,9.67
2023-04-19T18:37:17.472Z,5.57
2023-04-19T18:39:43.959Z,13.77
2023-04-19T18:42:10.262Z,8.97
2023-04-19T18:44:53.151Z,3.10
2023-04-19T18:47:20.574Z,3.00
2023-04-19T18:49:58.134Z,5.63
2023-04-19T18:52:30.614Z,2.37
2023-04-19T18:54:58.300Z,4.67
2023-04-19T18:57:27.513Z,4.10
2023-04-19T18:59:55.646Z,3.30
2023-04-19T19:02:22.058Z,2.50
2023-04-19T19:04:56.966Z,2.67
2023-04-19T19:07:36.101Z,3.57
2023-04-19T19:10:09.849Z,3.23
2023-04-19T19:12:43.210Z,2.60
2023-04-19T19:15:09.770Z,13.90
2023-04-19T19:17:36.277Z,5.83
2023-04-19T19:20:02.732Z,5.73
2023-04-19T19:22:29.285Z,4.07
2023-04-19T19:24:55.994Z,5.23
2023-04-19T19:27:22.320Z,4.37
2023-04-19T19:29:48.803Z,4.20
2023-04-19T19:32:15.128Z,5.60
2023-04-19T19:34:53.804Z,2.60
2023-04-19T19:37:21.667Z,3.50
2023-04-19T19:39:48.212Z,2.63
2023-04-19T19:42:18.431Z,5.30
2023-04-19T19:44:44.773Z,2.60
2023-04-19T19:47:11.332Z,4.53
2023-04-19T19:52:07.262Z,3.10
2023-04-19T19:54:35.820Z,2.83
2023-04-19T19:59:34.973Z,3.20
2023-04-19T20:02:02.513Z,3.77
2023-04-19T20:04:29.582Z,4.37
2023-04-19T20:07:28.502Z,2.87
2023-04-19T20:09:42.729Z,3.57
2023-04-19T20:12:10.677Z,4.83
2023-04-19T20:14:38.081Z,3.87
2023-04-19T20:17:05.065Z,3.33
2023-04-19T20:19:31.600Z,3.57
2023-04-19T20:21:59.017Z,3.27
2023-04-19T20:24:25.887Z,3.47
2023-04-19T20:26:52.215Z,4.00
2023-04-19T20:29:18.667Z,5.03
2023-04-19T20:31:45.124Z,4.87
2023-04-19T20:34:11.667Z,5.40
2023-04-19T20:36:38.391Z,4.30
2023-04-19T20:39:09.304Z,3.97
2023-04-19T20:41:35.856Z,4.10
2023-04-19T20:44:02.273Z,5.30
2023-04-19T20:46:28.664Z,3.07
2023-04-19T20:48:54.981Z,2.87
2023-04-19T20:51:21.294Z,3.70
2023-04-19T20:53:47.552Z,4.50
2023-04-19T20:56:13.909Z,3.87
2023-04-19T20:58:40.534Z,4.70
2023-04-19T21:01:06.875Z,4.33
2023-04-19T21:03:33.640Z,5.30
2023-04-19T21:06:00.338Z,4.57
2023-04-19T21:08:26.669Z,4.97
2023-04-19T21:10:52.976Z,4.50
2023-04-19T21:13:19.220Z,3.90
2023-04-19T21:15:45.491Z,3.53
2023-04-19T21:18:11.803Z,6.47
2023-04-19T21:20:39.376Z,3.73
2023-04-19T21:23:05.877Z,3.53
2023-04-19T21:25:32.117Z,3.07
2023-04-19T21:27:58.366Z,3.23
2023-04-19T21:30:25.605Z,3.60
2023-04-19T21:32:52.229Z,6.10
2023-04-19T21:35:18.671Z,4.40
2023-04-19T21:37:44.889Z,5.13
2023-04-19T21:40:11.371Z,4.23
2023-04-19T21:42:37.671Z,3.93
2023-04-19T21:45:04.232Z,4.57
2023-04-19T21:47:31.928Z,3.40
2023-04-19T21:49:58.332Z,4.17
2023-04-19T21:52:24.647Z,3.87
2023-04-19T21:54:50.963Z,5.33
2023-04-19T21:57:21.816Z,3.43
2023-04-19T21:59:48.110Z,3.30
2023-04-19T22:02:14.383Z,4.03
2023-04-19T22:04:41.470Z,3.83
2023-04-19T22:07:07.908Z,6.77
2023-04-19T22:09:34.207Z,5.40
2023-04-19T22:12:00.796Z,3.97
2023-04-19T22:14:27.686Z,5.00
2023-04-19T22:16:54.265Z,4.07
2023-04-19T22:19:21.111Z,4.27
2023-04-19T22:21:47.444Z,4.80
2023-04-19T22:24:13.778Z,4.23
2023-04-19T22:26:40.009Z,7.93
2023-04-19T22:29:06.461Z,5.90
2023-04-19T22:31:32.814Z,7.50
2023-04-19T22:33:59.115Z,5.50
2023-04-19T22:36:25.921Z,4.50
2023-04-19T22:38:52.281Z,6.33
2023-04-19T22:41:18.578Z,8.20
2023-04-19T22:43:45.438Z,3.93
2023-04-19T22:46:12.397Z,8.60
2023-04-19T22:48:38.758Z,5.00
2023-04-19T22:51:05.059Z,9.30
2023-04-19T22:53:31.400Z,4.83
2023-04-19T22:55:57.658Z,7.67
2023-04-19T22:58:23.966Z,6.30
2023-04-19T23:00:50.407Z,8.63
2023-04-19T23:03:16.686Z,4.90
2023-04-19T23:05:43.118Z,8.13
2023-04-19T23:08:09.460Z,5.27
2023-04-19T23:10:38.063Z,6.93
2023-04-19T23:13:05.229Z,6.07
2023-04-19T23:15:31.591Z,6.17
2023-04-19T23:17:59.350Z,6.73
2023-04-19T23:20:25.631Z,8.77
2023-04-19T23:22:51.948Z,6.67
2023-04-19T23:25:18.180Z,6.03
2023-04-19T23:27:44.704Z,7.37
2023-04-19T23:30:11.348Z,8.10
2023-04-19T23:32:37.794Z,7.73
2023-04-19T23:35:04.342Z,6.93
2023-04-19T23:37:30.670Z,8.33
2023-04-19T23:39:56.967Z,6.87
2023-04-19T23:42:23.355Z,7.57
2023-04-19T23:44:49.765Z,5.17
2023-04-19T23:47:16.279Z,8.20
2023-04-19T23:49:42.552Z,8.33
2023-04-19T23:52:08.842Z,7.20
2023-04-19T23:54:35.164Z,6.60
2023-04-19T23:57:01.773Z,10.30
2023-04-19T23:59:28.454Z,5.77
